Time;durP1;ratioP1;P1;durP2;ratioP2;P2;SDS_P1;SDS_P2;PMS_P1;PMS_P2;Temp;Humidity;BMP_temperature;BMP_pressure;BME280_temperature;BME280_humidity;BME280_pressure;Samples;Min_cycle;Max_cycle;Signal;HPM_P1;HPM_P2
2023/01/17 00:02:04;;;;;;;5.82;5.43;;;;;;;;;;5023836;28;20222;-77
2023/01/17 00:10:06;;;;;;;3.58;3.42;;;;;;;;;;5024926;28;20574;-77
2023/01/17 00:12:32;;;;;;;6.57;6.07;;;;;;;;;;5020842;28;20189;-77
2023/01/17 00:14:59;;;;;;;4.55;4.20;;;;;;;;;;5016824;28;20229;-75
2023/01/17 00:17:26;;;;;;;4.38;4.15;;;;;;;;;;5018854;28;20185;-76
2023/01/17 01:35:00;;;;;;;3.10;2.95;;;;;;;;;;5020013;28;20338;-76
2023/01/17 01:37:26;;;;;;;4.00;3.70;;;;;;;;;;5015526;28;20259;-76
2023/01/17 01:39:52;;;;;;;4.50;4.20;;;;;;;;;;5014821;28;20822;-76
2023/01/17 01:42:18;;;;;;;6.17;5.70;;;;;;;;;;5026697;28;20472;-76
2023/01/17 01:44:46;;;;;;;4.37;3.97;;;;;;;;;;5003512;28;20458;-76
2023/01/17 01:47:14;;;;;;;7.38;5.13;;;;;;;;;;5016743;28;20435;-75
2023/01/17 01:49:40;;;;;;;5.55;5.07;;;;;;;;;;5011954;28;20201;-76
2023/01/17 01:52:07;;;;;;;6.17;5.67;;;;;;;;;;5025012;28;20176;-76
2023/01/17 01:54:36;;;;;;;10.93;7.40;;;;;;;;;;5007962;28;20435;-75
2023/01/17 01:57:04;;;;;;;7.80;6.95;;;;;;;;;;5014610;28;20206;-76
2023/01/17 01:59:32;;;;;;;8.20;6.82;;;;;;;;;;5011091;28;20580;-76
2023/01/17 02:01:58;;;;;;;6.60;6.05;;;;;;;;;;5021010;28;20266;-77
2023/01/17 02:04:26;;;;;;;5.32;4.68;;;;;;;;;;5023036;28;20275;-75
2023/01/17 02:06:55;;;;;;;5.22;4.95;;;;;;;;;;5025049;28;20595;-76
2023/01/17 02:09:21;;;;;;;6.70;5.20;;;;;;;;;;5010282;28;20742;-75
2023/01/17 02:11:48;;;;;;;7.87;2.20;;;;;;;;;;5025683;28;20235;-76
2023/01/17 02:14:15;;;;;;;5.43;4.90;;;;;;;;;;5011375;28;20450;-76
2023/01/17 02:16:47;;;;;;;3.70;3.50;;;;;;;;;;5012240;28;20231;-75
2023/01/17 02:19:31;;;;;;;3.75;3.55;;;;;;;;;;5008291;28;20278;-76
2023/01/17 02:22:19;;;;;;;1.63;1.63;;;;;;;;;;5014945;28;20201;-75
2023/01/17 02:24:48;;;;;;;3.72;3.47;;;;;;;;;;5019626;28;20208;-75
2023/01/17 02:27:17;;;;;;;4.20;4.00;;;;;;;;;;5030226;28;20257;-76
2023/01/17 02:29:49;;;;;;;5.80;3.72;;;;;;;;;;5018891;28;20200;-74
2023/01/17 02:32:15;;;;;;;2.70;2.70;;;;;;;;;;5017315;28;20655;-75
2023/01/17 02:34:47;;;;;;;3.80;3.60;;;;;;;;;;5011365;28;20203;-75
2023/01/17 02:37:25;;;;;;;3.63;3.42;;;;;;;;;;5022655;28;20437;-74
2023/01/17 02:39:56;;;;;;;3.03;2.92;;;;;;;;;;5023635;28;20299;-75
2023/01/17 02:42:26;;;;;;;2.90;2.80;;;;;;;;;;5017042;28;20216;-75
2023/01/17 02:44:52;;;;;;;2.05;2.05;;;;;;;;;;5013217;28;20363;-75
2023/01/17 02:47:22;;;;;;;2.55;2.38;;;;;;;;;;5014411;28;20258;-75
2023/01/17 02:49:49;;;;;;;2.90;2.80;;;;;;;;;;5022251;28;20184;-75
2023/01/17 02:52:38;;;;;;;2.15;2.15;;;;;;;;;;5026217;28;20190;-76
2023/01/17 02:55:15;;;;;;;2.10;2.00;;;;;;;;;;5004177;28;20290;-76
2023/01/17 02:57:56;;;;;;;1.38;1.38;;;;;;;;;;5018262;28;20575;-77
2023/01/17 03:00:26;;;;;;;1.13;1.13;;;;;;;;;;5018637;28;20694;-75
2023/01/17 03:03:10;;;;;;;0.80;0.80;;;;;;;;;;5014181;28;20695;-76
2023/01/17 03:05:36;;;;;;;0.95;0.95;;;;;;;;;;5014642;28;20182;-77
2023/01/17 03:08:03;;;;;;;1.90;0.90;;;;;;;;;;5012058;28;20184;-76
2023/01/17 03:10:31;;;;;;;1.38;1.38;;;;;;;;;;5006971;28;20899;-76
2023/01/17 03:12:57;;;;;;;1.00;1.00;;;;;;;;;;5021526;28;20192;-77
2023/01/17 03:15:23;;;;;;;1.30;1.20;;;;;;;;;;5024093;28;20184;-77
2023/01/17 03:17:51;;;;;;;1.17;1.17;;;;;;;;;;5011896;28;20180;-76
2023/01/17 03:20:17;;;;;;;1.10;1.10;;;;;;;;;;5030013;28;20410;-76
2023/01/17 03:22:43;;;;;;;1.10;1.10;;;;;;;;;;5024782;28;20208;-76
2023/01/17 03:25:10;;;;;;;1.33;1.33;;;;;;;;;;5026255;28;20705;-76
2023/01/17 03:27:36;;;;;;;5.90;1.25;;;;;;;;;;5018870;28;20335;-76
2023/01/17 03:30:02;;;;;;;0.98;0.95;;;;;;;;;;5013663;28;20700;-76
2023/01/17 03:32:28;;;;;;;1.52;1.52;;;;;;;;;;5028798;28;20188;-76
2023/01/17 03:34:54;;;;;;;1.75;1.75;;;;;;;;;;5040688;28;20183;-76
2023/01/17 03:37:20;;;;;;;2.08;1.98;;;;;;;;;;5029166;28;20194;-75
2023/01/17 03:39:46;;;;;;;5.28;2.60;;;;;;;;;;5027054;28;20264;-76
2023/01/17 03:42:15;;;;;;;3.37;2.37;;;;;;;;;;5028295;28;20267;-75
2023/01/17 03:44:41;;;;;;;2.50;2.40;;;;;;;;;;5007926;28;20790;-76
2023/01/17 03:47:10;;;;;;;1.90;1.80;;;;;;;;;;5046802;28;20191;-76
2023/01/17 03:49:36;;;;;;;2.40;2.20;;;;;;;;;;5024965;28;20482;-76
2023/01/17 03:52:03;;;;;;;3.55;3.35;;;;;;;;;;5041006;28;20563;-76
2023/01/17 03:54:29;;;;;;;4.30;4.10;;;;;;;;;;5024851;28;20199;-76
2023/01/17 03:56:55;;;;;;;3.72;3.50;;;;;;;;;;5008931;28;20206;-76
2023/01/17 03:59:21;;;;;;;5.10;3.80;;;;;;;;;;5010850;28;20295;-76
2023/01/17 04:01:47;;;;;;;4.20;4.07;;;;;;;;;;5032112;28;20176;-75
2023/01/17 04:04:14;;;;;;;4.37;4.07;;;;;;;;;;5012660;28;20580;-75
2023/01/17 04:06:40;;;;;;;4.60;4.20;;;;;;;;;;5028001;28;20414;-75
2023/01/17 04:09:06;;;;;;;4.55;4.18;;;;;;;;;;5013389;28;20192;-76
2023/01/17 04:11:36;;;;;;;3.25;3.17;;;;;;;;;;5008891;28;20263;-76
2023/01/17 04:14:02;;;;;;;2.40;2.40;;;;;;;;;;5032065;28;20194;-75
2023/01/17 04:16:29;;;;;;;2.90;2.90;;;;;;;;;;5008603;28;20616;-75
2023/01/17 04:18:55;;;;;;;4.95;3.75;;;;;;;;;;5017285;28;20540;-75
2023/01/17 04:21:21;;;;;;;4.72;4.50;;;;;;;;;;5026956;28;20191;-77
2023/01/17 04:23:47;;;;;;;5.05;4.75;;;;;;;;;;5031403;28;20222;-78
2023/01/17 04:26:13;;;;;;;5.00;4.80;;;;;;;;;;5020763;28;20184;-75
2023/01/17 04:28:39;;;;;;;3.63;3.43;;;;;;;;;;5016991;28;20438;-75
2023/01/17 04:31:05;;;;;;;4.90;4.63;;;;;;;;;;5014784;28;20453;-76
2023/01/17 04:33:31;;;;;;;5.07;4.47;;;;;;;;;;5017831;28;20204;-75
2023/01/17 04:35:57;;;;;;;5.83;5.30;;;;;;;;;;5018776;28;20414;-77
2023/01/17 04:38:23;;;;;;;3.87;3.50;;;;;;;;;;5018652;28;20434;-75
2023/01/17 04:40:50;;;;;;;4.20;3.80;;;;;;;;;;5027333;28;20548;-76
2023/01/17 04:43:16;;;;;;;2.45;2.45;;;;;;;;;;5024585;28;20215;-75
2023/01/17 04:45:42;;;;;;;4.68;4.28;;;;;;;;;;5016554;28;20177;-76
2023/01/17 04:48:11;;;;;;;5.60;4.40;;;;;;;;;;5016367;28;20197;-77
2023/01/17 04:50:37;;;;;;;2.58;2.53;;;;;;;;;;5019125;28;20180;-76
2023/01/17 04:53:03;;;;;;;5.78;4.90;;;;;;;;;;5026027;28;20557;-76
2023/01/17 04:55:29;;;;;;;2.30;2.20;;;;;;;;;;5007542;28;20169;-76
2023/01/17 04:57:55;;;;;;;3.63;3.42;;;;;;;;;;5021114;28;20455;-77
2023/01/17 05:00:21;;;;;;;7.05;4.40;;;;;;;;;;5015965;28;20532;-76
2023/01/17 05:02:47;;;;;;;3.95;3.65;;;;;;;;;;5025378;28;20481;-76
2023/01/17 05:05:13;;;;;;;4.60;3.22;;;;;;;;;;5022540;28;20188;-77
2023/01/17 05:07:39;;;;;;;3.50;3.40;;;;;;;;;;5019380;28;20317;-76
2023/01/17 05:10:05;;;;;;;4.33;3.43;;;;;;;;;;5013488;28;20913;-76
2023/01/17 05:12:31;;;;;;;3.45;2.42;;;;;;;;;;5021233;28;20520;-74
2023/01/17 05:14:57;;;;;;;5.67;3.40;;;;;;;;;;5015643;28;20271;-75
2023/01/17 05:17:23;;;;;;;4.47;4.13;;;;;;;;;;5015658;28;20858;-80
2023/01/17 05:19:50;;;;;;;2.15;2.15;;;;;;;;;;5011617;28;20445;-76
2023/01/17 05:22:16;;;;;;;3.42;3.28;;;;;;;;;;5024476;28;20187;-74
2023/01/17 05:24:46;;;;;;;5.00;4.60;;;;;;;;;;5024008;28;20257;-75
2023/01/17 05:27:13;;;;;;;4.80;4.50;;;;;;;;;;5014385;28;20790;-77
2023/01/17 05:29:39;;;;;;;5.22;4.78;;;;;;;;;;5005979;28;20204;-77
2023/01/17 05:32:05;;;;;;;4.15;3.58;;;;;;;;;;5026018;28;20228;-77
2023/01/17 05:34:31;;;;;;;4.50;4.10;;;;;;;;;;5024443;28;20222;-76
2023/01/17 05:36:57;;;;;;;4.18;3.97;;;;;;;;;;5015126;28;20790;-75
2023/01/17 05:39:25;;;;;;;4.87;4.67;;;;;;;;;;5011692;28;20206;-76
2023/01/17 05:41:51;;;;;;;5.05;4.70;;;;;;;;;;5011606;28;20455;-76
2023/01/17 05:44:17;;;;;;;5.97;5.47;;;;;;;;;;5020670;28;20211;-76
2023/01/17 05:46:43;;;;;;;8.40;5.43;;;;;;;;;;5011533;28;20432;-75
2023/01/17 05:49:09;;;;;;;6.13;5.30;;;;;;;;;;5024270;28;20645;-76
2023/01/17 05:51:36;;;;;;;4.18;3.88;;;;;;;;;;5020930;28;20219;-76
2023/01/17 05:54:03;;;;;;;6.40;2.80;;;;;;;;;;5018972;28;20210;-76
2023/01/17 05:56:29;;;;;;;2.97;2.78;;;;;;;;;;5011228;28;20216;-77
2023/01/17 05:58:55;;;;;;;4.73;4.43;;;;;;;;;;5015923;28;20212;-75
2023/01/17 06:01:21;;;;;;;4.93;4.63;;;;;;;;;;5022427;28;20917;-75
2023/01/17 06:03:47;;;;;;;6.30;4.68;;;;;;;;;;5027197;28;21048;-76
2023/01/17 06:06:14;;;;;;;7.00;5.07;;;;;;;;;;5017772;28;20208;-76
2023/01/17 06:08:40;;;;;;;5.75;5.25;;;;;;;;;;5013137;28;20435;-75
2023/01/17 06:11:06;;;;;;;5.60;5.10;;;;;;;;;;5002209;28;20231;-77
2023/01/17 06:13:32;;;;;;;7.63;6.20;;;;;;;;;;5016402;28;20210;-77
2023/01/17 06:16:01;;;;;;;5.22;3.70;;;;;;;;;;5023386;28;20686;-76
2023/01/17 06:18:28;;;;;;;6.50;6.10;;;;;;;;;;5014288;28;20417;-77
2023/01/17 06:20:54;;;;;;;10.80;7.55;;;;;;;;;;5022050;28;20195;-76
2023/01/17 06:23:21;;;;;;;8.07;6.85;;;;;;;;;;5016928;28;20299;-74
2023/01/17 06:25:47;;;;;;;7.50;6.82;;;;;;;;;;5021289;28;20200;-77
2023/01/17 06:28:14;;;;;;;7.28;6.57;;;;;;;;;;5019041;28;20361;-76
2023/01/17 06:30:40;;;;;;;9.15;7.75;;;;;;;;;;5011043;28;20212;-77
2023/01/17 06:33:06;;;;;;;14.63;7.80;;;;;;;;;;5011878;28;20675;-75
2023/01/17 06:35:32;;;;;;;12.93;7.60;;;;;;;;;;5023000;28;20184;-75
2023/01/17 06:37:59;;;;;;;8.05;6.15;;;;;;;;;;5010754;28;20241;-75
2023/01/17 06:40:25;;;;;;;5.70;4.18;;;;;;;;;;5015123;28;20200;-76
2023/01/17 06:42:51;;;;;;;8.88;7.60;;;;;;;;;;5022090;28;20222;-75
2023/01/17 06:45:18;;;;;;;9.18;7.75;;;;;;;;;;5025101;28;20551;-75
2023/01/17 06:47:43;;;;;;;14.15;7.60;;;;;;;;;;5010937;28;20194;-77
2023/01/17 06:53:01;;;;;;;13.50;9.13;;;;;;;;;;5144352;22;20450;-91
2023/01/17 06:58:14;;;;;;;9.23;8.20;;;;;;;;;;5005064;23;20243;-76
2023/01/17 07:00:40;;;;;;;8.20;7.50;;;;;;;;;;5000895;28;20406;-75
2023/01/17 07:03:06;;;;;;;9.90;7.73;;;;;;;;;;5023043;28;20685;-76
2023/01/17 07:05:35;;;;;;;6.95;6.15;;;;;;;;;;5028206;28;20445;-77
2023/01/17 07:08:01;;;;;;;10.40;8.25;;;;;;;;;;5024048;28;20654;-75
2023/01/17 07:10:27;;;;;;;11.48;7.90;;;;;;;;;;5013510;28;20554;-77
2023/01/17 07:12:57;;;;;;;9.10;6.93;;;;;;;;;;5027508;28;20173;-76
2023/01/17 07:15:23;;;;;;;9.70;7.18;;;;;;;;;;5022777;28;20442;-75
2023/01/17 07:17:49;;;;;;;10.45;6.88;;;;;;;;;;5000555;28;20187;-76
2023/01/17 07:20:15;;;;;;;11.52;8.45;;;;;;;;;;5023161;28;20602;-76
2023/01/17 07:22:44;;;;;;;13.80;8.80;;;;;;;;;;5021804;28;20200;-76
2023/01/17 07:25:10;;;;;;;13.20;9.23;;;;;;;;;;5023498;28;20196;-76
2023/01/17 07:27:36;;;;;;;10.68;8.57;;;;;;;;;;5029399;28;20187;-76
2023/01/17 07:30:02;;;;;;;8.73;7.80;;;;;;;;;;5024087;28;20290;-76
2023/01/17 07:32:28;;;;;;;13.70;9.63;;;;;;;;;;5026275;28;20427;-74
2023/01/17 07:34:58;;;;;;;15.75;9.15;;;;;;;;;;5023397;28;20188;-75
2023/01/17 07:37:25;;;;;;;6.93;6.00;;;;;;;;;;5026981;28;20602;-75
2023/01/17 07:39:51;;;;;;;14.27;10.43;;;;;;;;;;5019699;28;20187;-76
2023/01/17 07:42:17;;;;;;;12.13;6.55;;;;;;;;;;5033308;28;20241;-76
2023/01/17 07:44:44;;;;;;;12.50;11.20;;;;;;;;;;5023397;28;20199;-76
2023/01/17 07:47:10;;;;;;;13.43;10.50;;;;;;;;;;5027118;28;20386;-77
2023/01/17 07:49:36;;;;;;;11.95;8.55;;;;;;;;;;5017844;28;20206;-76
2023/01/17 07:52:02;;;;;;;12.02;10.75;;;;;;;;;;5012148;28;20204;-75
2023/01/17 07:54:29;;;;;;;13.38;10.00;;;;;;;;;;5013345;28;20194;-76
2023/01/17 07:56:55;;;;;;;13.55;9.70;;;;;;;;;;5014039;28;20785;-75
2023/01/17 07:59:21;;;;;;;13.20;10.70;;;;;;;;;;4992626;28;20506;-75
2023/01/17 08:01:47;;;;;;;16.73;10.73;;;;;;;;;;5004979;28;20563;-75
2023/01/17 08:04:13;;;;;;;12.40;10.00;;;;;;;;;;5001584;28;20473;-76
2023/01/17 08:06:41;;;;;;;15.13;11.55;;;;;;;;;;5002487;28;20494;-74
2023/01/17 08:09:07;;;;;;;15.60;10.32;;;;;;;;;;5003506;28;20197;-75
2023/01/17 08:11:33;;;;;;;17.57;11.50;;;;;;;;;;5003632;28;20193;-76
2023/01/17 08:13:59;;;;;;;18.60;11.50;;;;;;;;;;5002972;28;21171;-75
2023/01/17 08:16:27;;;;;;;8.33;7.03;;;;;;;;;;5001352;28;20431;-75
2023/01/17 08:18:54;;;;;;;19.73;9.20;;;;;;;;;;5001268;28;20448;-75
2023/01/17 08:21:21;;;;;;;17.35;11.05;;;;;;;;;;5007945;28;20228;-76
2023/01/17 08:23:50;;;;;;;15.07;11.57;;;;;;;;;;5002506;28;20220;-75
2023/01/17 08:26:21;;;;;;;17.13;10.50;;;;;;;;;;4999704;28;20203;-76
2023/01/17 08:28:48;;;;;;;17.17;12.10;;;;;;;;;;4998706;28;20193;-75
2023/01/17 08:31:16;;;;;;;14.38;10.93;;;;;;;;;;5013022;28;20183;-75
2023/01/17 08:33:42;;;;;;;15.20;10.82;;;;;;;;;;4998397;28;20208;-76
2023/01/17 08:36:08;;;;;;;11.83;10.23;;;;;;;;;;5001533;28;20202;-75
2023/01/17 08:38:34;;;;;;;13.20;10.73;;;;;;;;;;4996237;28;20531;-76
2023/01/17 08:41:00;;;;;;;21.13;11.37;;;;;;;;;;5008777;28;20929;-76
2023/01/17 08:43:26;;;;;;;12.15;7.90;;;;;;;;;;4983666;28;20536;-77
2023/01/17 08:45:54;;;;;;;20.27;9.90;;;;;;;;;;5004710;28;20280;-75
2023/01/17 08:48:20;;;;;;;14.68;9.50;;;;;;;;;;4998963;28;20511;-76
2023/01/17 08:50:46;;;;;;;13.80;8.85;;;;;;;;;;5003270;28;20205;-75
2023/01/17 08:53:12;;;;;;;14.33;9.90;;;;;;;;;;4993831;28;20277;-76
2023/01/17 08:55:39;;;;;;;17.08;9.95;;;;;;;;;;5004460;28;20765;-75
2023/01/17 08:58:06;;;;;;;16.20;10.30;;;;;;;;;;4996273;28;20224;-75
2023/01/17 09:00:32;;;;;;;25.10;11.20;;;;;;;;;;5002109;28;20415;-76
2023/01/17 09:02:58;;;;;;;6.73;6.03;;;;;;;;;;4996892;28;20217;-75
2023/01/17 09:05:24;;;;;;;13.93;9.10;;;;;;;;;;5006716;28;20504;-76
2023/01/17 09:07:50;;;;;;;16.27;9.75;;;;;;;;;;4999166;28;20227;-75
2023/01/17 09:10:16;;;;;;;11.63;10.00;;;;;;;;;;5003196;28;20208;-76
2023/01/17 09:12:42;;;;;;;18.07;10.17;;;;;;;;;;4989978;28;20533;-76
2023/01/17 09:15:09;;;;;;;12.57;9.00;;;;;;;;;;5004596;28;20498;-76
2023/01/17 09:17:35;;;;;;;23.20;11.27;;;;;;;;;;4997221;28;20491;-76
2023/01/17 09:20:01;;;;;;;12.05;9.15;;;;;;;;;;5006016;28;20408;-75
2023/01/17 09:22:27;;;;;;;13.93;11.27;;;;;;;;;;4995228;28;20287;-75
2023/01/17 09:24:53;;;;;;;12.20;8.23;;;;;;;;;;4995988;28;20796;-75
2023/01/17 09:27:19;;;;;;;13.75;9.80;;;;;;;;;;5003855;28;20185;-76
2023/01/17 09:29:46;;;;;;;10.85;7.97;;;;;;;;;;5001721;28;20196;-77
2023/01/17 09:32:12;;;;;;;11.57;9.35;;;;;;;;;;5006460;28;20239;-76
2023/01/17 09:34:38;;;;;;;9.93;8.33;;;;;;;;;;5012512;28;20202;-76
2023/01/17 09:37:04;;;;;;;9.93;8.90;;;;;;;;;;4999372;28;20435;-76
2023/01/17 09:39:29;;;;;;;12.03;7.83;;;;;;;;;;4992171;28;21108;-75
2023/01/17 09:41:59;;;;;;;12.33;8.50;;;;;;;;;;5002304;28;20426;-75
2023/01/17 09:44:51;;;;;;;12.23;8.00;;;;;;;;;;4994126;28;20497;-76
2023/01/17 09:47:33;;;;;;;10.17;9.20;;;;;;;;;;4993966;28;20455;-75
2023/01/17 09:50:22;;;;;;;9.83;7.53;;;;;;;;;;4998552;28;20427;-75
2023/01/17 09:52:48;;;;;;;9.43;8.40;;;;;;;;;;4981223;28;20982;-77
2023/01/17 09:55:15;;;;;;;7.30;6.70;;;;;;;;;;5006009;28;20899;-76
2023/01/17 09:57:59;;;;;;;8.87;7.97;;;;;;;;;;4994367;28;20883;-76
2023/01/17 10:00:44;;;;;;;8.13;7.33;;;;;;;;;;5000573;28;20587;-77
2023/01/17 10:03:23;;;;;;;10.60;7.57;;;;;;;;;;4998328;28;20491;-75
2023/01/17 10:05:56;;;;;;;7.13;6.53;;;;;;;;;;4998186;28;20509;-75
2023/01/17 10:08:22;;;;;;;6.93;6.47;;;;;;;;;;4995567;28;20519;-77
2023/01/17 10:10:56;;;;;;;7.50;6.90;;;;;;;;;;5000314;28;20568;-77
2023/01/17 10:13:28;;;;;;;8.83;7.00;;;;;;;;;;5002640;28;20447;-78
2023/01/17 10:16:00;;;;;;;11.80;7.63;;;;;;;;;;4998086;28;20439;-77
2023/01/17 10:18:29;;;;;;;8.40;7.80;;;;;;;;;;4994604;28;21009;-76
2023/01/17 10:21:14;;;;;;;13.83;7.60;;;;;;;;;;5000213;28;20929;-76
2023/01/17 10:23:52;;;;;;;8.07;7.27;;;;;;;;;;4996033;28;20574;-76
2023/01/17 10:26:21;;;;;;;11.80;6.77;;;;;;;;;;4994670;28;20535;-78
2023/01/17 10:28:50;;;;;;;6.27;5.73;;;;;;;;;;4996192;28;20443;-77
2023/01/17 10:31:21;;;;;;;6.63;6.03;;;;;;;;;;5002658;28;20432;-76
2023/01/17 10:33:51;;;;;;;8.40;7.60;;;;;;;;;;5002881;28;20608;-76
2023/01/17 10:36:19;;;;;;;12.10;5.85;;;;;;;;;;5003164;28;20447;-77
2023/01/17 10:38:56;;;;;;;7.23;6.50;;;;;;;;;;4998156;28;20208;-76
2023/01/17 10:41:39;;;;;;;11.93;6.23;;;;;;;;;;4995719;28;20809;-76
2023/01/17 10:44:11;;;;;;;5.40;5.07;;;;;;;;;;4997806;28;20637;-77
2023/01/17 10:46:56;;;;;;;8.53;6.37;;;;;;;;;;4997689;28;20443;-76
2023/01/17 10:49:27;;;;;;;12.93;6.60;;;;;;;;;;4998403;28;20503;-77
2023/01/17 10:51:58;;;;;;;9.97;7.13;;;;;;;;;;4996945;28;20555;-76
2023/01/17 10:54:40;;;;;;;9.07;7.57;;;;;;;;;;4997604;28;20538;-76
2023/01/17 10:57:12;;;;;;;10.55;7.15;;;;;;;;;;4999823;28;20546;-77
2023/01/17 10:59:38;;;;;;;13.00;7.25;;;;;;;;;;4991844;28;20199;-76
2023/01/17 11:02:14;;;;;;;9.57;7.67;;;;;;;;;;4996682;28;20176;-74
2023/01/17 11:04:41;;;;;;;10.40;7.00;;;;;;;;;;4997541;28;20477;-75
2023/01/17 11:07:13;;;;;;;8.15;7.32;;;;;;;;;;5001654;28;20172;-76
2023/01/17 11:09:44;;;;;;;12.30;7.50;;;;;;;;;;4997492;28;20423;-77
2023/01/17 11:12:36;;;;;;;11.82;7.50;;;;;;;;;;4999301;28;20415;-75
2023/01/17 11:15:04;;;;;;;8.10;7.30;;;;;;;;;;4967371;28;20213;-76
2023/01/17 11:17:31;;;;;;;8.45;7.35;;;;;;;;;;4999844;28;20650;-76
2023/01/17 11:20:18;;;;;;;7.27;6.50;;;;;;;;;;4989060;28;20193;-77
2023/01/17 11:22:47;;;;;;;10.33;8.40;;;;;;;;;;4992877;28;20458;-76
2023/01/17 11:25:20;;;;;;;8.43;7.50;;;;;;;;;;4997901;28;20548;-77
2023/01/17 11:27:56;;;;;;;6.60;6.00;;;;;;;;;;5000983;28;20788;-77
2023/01/17 11:30:28;;;;;;;11.13;6.10;;;;;;;;;;4999173;28;21044;-75
2023/01/17 11:32:58;;;;;;;6.30;5.70;;;;;;;;;;4992035;28;20452;-75
2023/01/17 11:35:27;;;;;;;15.70;7.37;;;;;;;;;;4999781;28;20461;-75
2023/01/17 11:37:57;;;;;;;8.10;7.00;;;;;;;;;;4992797;28;20580;-76
2023/01/17 11:40:37;;;;;;;8.80;6.10;;;;;;;;;;5000481;28;20442;-75
2023/01/17 11:43:09;;;;;;;7.70;6.80;;;;;;;;;;5001248;28;20470;-76
2023/01/17 11:45:35;;;;;;;9.00;6.70;;;;;;;;;;4999906;28;20185;-76
2023/01/17 11:48:04;;;;;;;7.65;6.95;;;;;;;;;;5004746;28;20203;-75
2023/01/17 11:50:30;;;;;;;15.63;6.43;;;;;;;;;;4998451;28;20684;-75
2023/01/17 11:53:15;;;;;;;8.38;7.70;;;;;;;;;;4999932;28;20502;-76
2023/01/17 11:55:55;;;;;;;7.10;6.50;;;;;;;;;;4996034;28;20199;-77
2023/01/17 11:58:22;;;;;;;6.80;6.20;;;;;;;;;;4994762;28;20497;-76
2023/01/17 12:00:54;;;;;;;6.07;5.67;;;;;;;;;;4993556;28;20439;-78
2023/01/17 12:03:20;;;;;;;6.27;5.67;;;;;;;;;;4995083;28;20490;-76
2023/01/17 12:06:03;;;;;;;7.20;6.60;;;;;;;;;;5000478;28;20439;-74
2023/01/17 12:08:35;;;;;;;6.77;6.00;;;;;;;;;;4992618;28;20527;-75
2023/01/17 12:11:20;;;;;;;9.50;5.53;;;;;;;;;;5003629;28;20802;-75
2023/01/17 12:14:05;;;;;;;7.70;6.00;;;;;;;;;;4977796;28;20448;-75
2023/01/17 12:16:57;;;;;;;8.68;5.63;;;;;;;;;;4980586;28;20498;-75
2023/01/17 12:19:37;;;;;;;10.30;5.70;;;;;;;;;;5001500;28;20241;-76
2023/01/17 12:22:13;;;;;;;8.40;6.50;;;;;;;;;;5002911;28;20509;-75
2023/01/17 12:24:48;;;;;;;9.10;6.20;;;;;;;;;;4998820;28;20829;-77
2023/01/17 12:27:21;;;;;;;6.27;5.87;;;;;;;;;;5006180;28;20404;-75
2023/01/17 12:30:02;;;;;;;9.63;6.17;;;;;;;;;;4997896;28;21025;-75
2023/01/17 12:32:40;;;;;;;6.67;5.40;;;;;;;;;;5000934;28;20412;-75
2023/01/17 12:35:22;;;;;;;6.43;5.73;;;;;;;;;;4981404;28;20977;-75
2023/01/17 12:37:51;;;;;;;5.50;5.00;;;;;;;;;;5001359;28;20447;-76
2023/01/17 12:40:22;;;;;;;4.93;4.60;;;;;;;;;;5002346;28;20523;-76
2023/01/17 12:42:58;;;;;;;6.30;5.97;;;;;;;;;;5000843;28;20499;-76
2023/01/17 12:45:44;;;;;;;9.50;5.40;;;;;;;;;;4994944;28;20998;-76
2023/01/17 12:48:16;;;;;;;7.43;5.50;;;;;;;;;;5003815;28;20505;-77
2023/01/17 12:50:54;;;;;;;4.60;4.20;;;;;;;;;;4981731;28;20539;-74
2023/01/17 12:53:27;;;;;;;5.37;5.00;;;;;;;;;;4996091;28;20482;-76
2023/01/17 12:56:08;;;;;;;5.90;4.70;;;;;;;;;;5002063;28;20447;-75
2023/01/17 12:58:37;;;;;;;4.80;4.40;;;;;;;;;;5015661;28;20451;-77
2023/01/17 13:01:19;;;;;;;3.93;3.73;;;;;;;;;;5016443;28;20418;-75
2023/01/17 13:03:48;;;;;;;9.83;5.10;;;;;;;;;;5017671;28;20469;-76
2023/01/17 13:06:19;;;;;;;8.70;4.67;;;;;;;;;;5015785;28;20492;-77
2023/01/17 13:08:48;;;;;;;7.67;5.07;;;;;;;;;;5008162;28;20447;-77
2023/01/17 13:11:26;;;;;;;6.00;4.97;;;;;;;;;;5022027;28;20440;-76
2023/01/17 13:13:56;;;;;;;6.70;6.20;;;;;;;;;;5018801;28;20450;-75
2023/01/17 13:16:28;;;;;;;5.00;4.53;;;;;;;;;;5023384;28;20457;-75
2023/01/17 13:18:55;;;;;;;5.77;4.60;;;;;;;;;;5021930;28;20968;-76
2023/01/17 13:21:28;;;;;;;5.50;4.23;;;;;;;;;;5024538;28;20537;-75
2023/01/17 13:23:55;;;;;;;5.07;4.70;;;;;;;;;;5018896;28;20458;-75
2023/01/17 13:26:40;;;;;;;6.20;3.87;;;;;;;;;;5018057;28;20442;-76
2023/01/17 13:29:06;;;;;;;8.33;4.73;;;;;;;;;;5020188;28;20831;-77
2023/01/17 13:31:46;;;;;;;12.90;4.20;;;;;;;;;;5007419;28;20434;-74
2023/01/17 13:34:12;;;;;;;4.30;4.20;;;;;;;;;;5015991;28;20902;-77
2023/01/17 13:36:56;;;;;;;4.27;3.87;;;;;;;;;;5021939;28;20430;-76
2023/01/17 13:39:32;;;;;;;5.33;4.60;;;;;;;;;;4995194;28;20438;-75
2023/01/17 13:41:58;;;;;;;5.00;4.60;;;;;;;;;;5024442;28;21146;-76
2023/01/17 13:44:25;;;;;;;4.80;4.50;;;;;;;;;;5019173;28;20471;-77
2023/01/17 13:47:03;;;;;;;4.70;4.50;;;;;;;;;;5021732;28;20430;-76
2023/01/17 13:49:30;;;;;;;4.70;4.30;;;;;;;;;;5017672;28;20443;-75
2023/01/17 13:52:15;;;;;;;5.70;4.30;;;;;;;;;;5025854;28;20422;-76
2023/01/17 13:54:45;;;;;;;10.37;4.70;;;;;;;;;;5017729;28;20952;-75
2023/01/17 13:57:31;;;;;;;11.80;4.70;;;;;;;;;;5011264;28;20463;-75
2023/01/17 14:00:20;;;;;;;4.67;4.23;;;;;;;;;;4997930;28;20860;-76
2023/01/17 14:02:47;;;;;;;6.20;4.90;;;;;;;;;;4958660;28;20493;-77
2023/01/17 14:05:20;;;;;;;5.53;5.03;;;;;;;;;;4995909;28;20535;-76
2023/01/17 14:07:56;;;;;;;4.83;4.20;;;;;;;;;;5003000;28;20775;-76
2023/01/17 14:10:40;;;;;;;5.07;4.60;;;;;;;;;;4999574;28;20442;-76
2023/01/17 14:13:25;;;;;;;6.13;3.87;;;;;;;;;;4989195;28;20436;-76
2023/01/17 14:15:51;;;;;;;3.93;3.70;;;;;;;;;;5000829;28;20538;-75
2023/01/17 14:18:37;;;;;;;4.57;4.13;;;;;;;;;;5002939;28;20522;-76
2023/01/17 14:21:19;;;;;;;7.37;4.17;;;;;;;;;;4996541;28;20482;-77
2023/01/17 14:23:47;;;;;;;7.50;5.50;;;;;;;;;;4996479;28;20590;-76
2023/01/17 14:26:27;;;;;;;9.47;4.00;;;;;;;;;;4997982;28;20491;-76
2023/01/17 14:28:53;;;;;;;4.17;3.87;;;;;;;;;;4990187;28;20821;-76
2023/01/17 14:31:21;;;;;;;6.03;3.33;;;;;;;;;;5001892;28;20949;-77
2023/01/17 14:33:47;;;;;;;4.20;3.60;;;;;;;;;;5003061;28;20852;-76
2023/01/17 14:36:20;;;;;;;3.90;3.53;;;;;;;;;;5002504;28;20451;-76
2023/01/17 14:38:46;;;;;;;3.37;3.13;;;;;;;;;;5003060;28;20907;-74
2023/01/17 14:41:21;;;;;;;3.43;3.00;;;;;;;;;;4999282;28;20431;-76
2023/01/17 14:43:48;;;;;;;4.73;3.00;;;;;;;;;;5000963;28;20475;-74
2023/01/17 14:46:14;;;;;;;4.97;3.60;;;;;;;;;;5000736;28;20463;-76
2023/01/17 14:48:40;;;;;;;3.20;2.97;;;;;;;;;;5001038;28;20444;-76
2023/01/17 14:51:14;;;;;;;3.07;2.87;;;;;;;;;;4985752;28;21049;-76
2023/01/17 14:53:51;;;;;;;2.90;2.70;;;;;;;;;;5002002;28;20431;-76
2023/01/17 14:56:18;;;;;;;3.70;3.43;;;;;;;;;;4997624;28;20451;-76
2023/01/17 14:58:45;;;;;;;5.90;4.17;;;;;;;;;;5000092;28;20431;-76
2023/01/17 15:01:13;;;;;;;5.60;3.50;;;;;;;;;;4993183;28;20451;-75
2023/01/17 15:03:57;;;;;;;3.50;3.30;;;;;;;;;;4997843;28;20460;-76
2023/01/17 15:06:26;;;;;;;3.40;3.20;;;;;;;;;;4989186;28;20515;-76
2023/01/17 15:08:53;;;;;;;3.13;2.80;;;;;;;;;;4999511;28;20499;-76
2023/01/17 15:11:26;;;;;;;4.00;3.07;;;;;;;;;;4997206;28;20869;-76
2023/01/17 15:13:53;;;;;;;4.20;2.93;;;;;;;;;;4994530;28;20423;-78
2023/01/17 15:16:22;;;;;;;5.40;2.80;;;;;;;;;;5002114;28;20473;-76
2023/01/17 15:18:49;;;;;;;6.63;2.40;;;;;;;;;;5006285;28;20414;-78
2023/01/17 15:21:18;;;;;;;3.90;3.00;;;;;;;;;;5001469;28;20799;-75
2023/01/17 15:23:46;;;;;;;4.40;3.90;;;;;;;;;;5006507;28;20618;-76
2023/01/17 15:26:16;;;;;;;8.70;5.43;;;;;;;;;;4998651;28;20444;-75
2023/01/17 15:28:46;;;;;;;4.17;3.57;;;;;;;;;;5004764;28;20648;-75
2023/01/17 15:31:16;;;;;;;6.25;3.92;;;;;;;;;;4999727;28;20748;-76
2023/01/17 15:33:47;;;;;;;4.05;3.78;;;;;;;;;;5005254;28;20187;-76
2023/01/17 15:36:25;;;;;;;11.18;4.45;;;;;;;;;;5002974;28;20208;-76
2023/01/17 15:38:56;;;;;;;3.50;3.15;;;;;;;;;;5000517;28;20189;-76
2023/01/17 15:41:24;;;;;;;4.97;3.38;;;;;;;;;;5021257;28;20377;-76
2023/01/17 15:43:50;;;;;;;5.57;3.70;;;;;;;;;;5002035;28;20220;-73
2023/01/17 15:46:21;;;;;;;4.07;3.72;;;;;;;;;;4998078;28;20195;-74
2023/01/17 15:48:48;;;;;;;7.03;5.20;;;;;;;;;;5003508;28;20215;-76
2023/01/17 15:51:28;;;;;;;4.22;3.92;;;;;;;;;;5003688;28;20318;-77
2023/01/17 15:53:55;;;;;;;6.05;4.47;;;;;;;;;;5001529;28;20274;-75
2023/01/17 15:56:28;;;;;;;7.18;5.75;;;;;;;;;;5006400;28;20733;-76
2023/01/17 15:58:54;;;;;;;5.05;4.60;;;;;;;;;;5002652;28;20168;-75
2023/01/17 16:01:26;;;;;;;7.03;5.27;;;;;;;;;;5007106;28;20185;-76
2023/01/17 16:03:53;;;;;;;6.25;5.45;;;;;;;;;;4997599;28;20468;-76
2023/01/17 16:06:35;;;;;;;8.90;6.22;;;;;;;;;;5007220;28;20698;-76
2023/01/17 16:09:03;;;;;;;7.10;5.72;;;;;;;;;;4997417;28;20359;-75
2023/01/17 16:11:31;;;;;;;7.30;5.25;;;;;;;;;;5001280;28;20429;-74
2023/01/17 16:14:00;;;;;;;8.57;6.05;;;;;;;;;;5004962;28;20177;-75
2023/01/17 16:16:26;;;;;;;4.93;4.43;;;;;;;;;;5001876;28;20196;-74
2023/01/17 16:19:00;;;;;;;5.70;4.63;;;;;;;;;;5004962;28;20383;-78
2023/01/17 16:21:27;;;;;;;10.68;5.75;;;;;;;;;;5002012;28;20420;-77